Time;durP1;ratioP1;P1;durP2;ratioP2;P2;SDS_P1;SDS_P2;PMS_P1;PMS_P2;Temp;Humidity;BMP_temperature;BMP_pressure;BME280_temperature;BME280_humidity;BME280_pressure;Samples;Min_cycle;Max_cycle;Signal;HPM_P1;HPM_P2
2022/06/12 00:00:01;;;;;;;2.67;1.73;;;24.50;85.80;;;;;;5055281;28;20455;-7
2022/06/12 00:02:27;;;;;;;3.30;1.57;;;24.40;85.70;;;;;;5073341;28;20255;-8
2022/06/12 00:04:52;;;;;;;2.40;1.60;;;24.40;85.80;;;;;;5072037;28;20508;-7
2022/06/12 00:07:18;;;;;;;1.90;1.60;;;24.40;85.90;;;;;;5072547;28;20565;-8
2022/06/12 00:09:44;;;;;;;1.93;1.67;;;24.40;85.90;;;;;;5073719;28;20222;-5
2022/06/12 00:12:10;;;;;;;4.20;1.70;;;24.40;86.00;;;;;;5055533;28;20179;-6
2022/06/12 00:14:36;;;;;;;2.30;1.70;;;24.40;86.00;;;;;;5073043;28;20182;-7
2022/06/12 00:17:02;;;;;;;3.03;1.50;;;24.40;86.20;;;;;;5072451;28;20537;-6
2022/06/12 00:19:30;;;;;;;2.13;1.60;;;24.40;86.10;;;;;;5056032;28;20263;-6
2022/06/12 00:21:56;;;;;;;2.07;1.50;;;24.30;86.10;;;;;;5073373;28;20579;-5
2022/06/12 00:24:23;;;;;;;2.07;1.50;;;24.40;86.20;;;;;;5054858;28;20246;-6
2022/06/12 00:26:52;;;;;;;2.43;1.67;;;24.30;86.10;;;;;;5074413;28;20181;-7
2022/06/12 00:29:31;;;;;;;2.80;1.80;;;24.30;86.10;;;;;;5074439;28;20278;-5
2022/06/12 00:32:04;;;;;;;2.43;1.70;;;24.30;86.20;;;;;;5055945;28;20171;-6
2022/06/12 00:34:38;;;;;;;3.17;1.70;;;24.30;86.20;;;;;;5071392;28;20175;-5
2022/06/12 00:37:05;;;;;;;5.00;2.00;;;24.30;86.20;;;;;;5073503;28;20178;-6
2022/06/12 00:39:32;;;;;;;2.10;1.50;;;24.30;86.20;;;;;;5073144;28;20235;-7
2022/06/12 00:41:59;;;;;;;3.03;1.97;;;24.20;86.10;;;;;;5054282;28;20564;-6
2022/06/12 00:44:34;;;;;;;2.57;1.77;;;24.20;86.30;;;;;;5054663;28;20167;-7
2022/06/12 00:47:10;;;;;;;2.53;1.80;;;24.20;86.20;;;;;;5072460;28;20173;-6
2022/06/12 00:49:39;;;;;;;1.90;1.60;;;24.20;86.20;;;;;;5073366;28;20669;-7
2022/06/12 00:52:22;;;;;;;3.93;1.70;;;24.20;86.20;;;;;;5073488;28;20577;-6
2022/06/12 00:54:56;;;;;;;1.93;1.70;;;24.20;86.20;;;;;;5073914;28;20167;-6
2022/06/12 00:57:25;;;;;;;3.83;2.10;;;24.10;86.10;;;;;;5073185;28;20187;-7
2022/06/12 00:59:58;;;;;;;3.53;1.87;;;24.10;86.10;;;;;;5074605;28;20230;-6
2022/06/12 01:02:28;;;;;;;3.23;1.80;;;24.10;86.10;;;;;;5072962;28;20270;-7
2022/06/12 01:07:46;;;;;;;3.23;1.80;;;24.10;86.00;;;;;;5073003;28;20171;-6
2022/06/12 01:10:15;;;;;;;2.37;1.90;;;24.10;86.10;;;;;;5055635;28;20276;-7
2022/06/12 01:12:50;;;;;;;2.43;1.70;;;24.10;86.10;;;;;;5055787;28;20557;-7
2022/06/12 01:15:39;;;;;;;2.33;1.70;;;24.10;86.00;;;;;;5055658;28;20437;-6
2022/06/12 01:18:09;;;;;;;2.37;1.67;;;24.10;86.00;;;;;;5072897;28;20239;-7
2022/06/12 01:20:43;;;;;;;2.77;1.70;;;24.10;86.00;;;;;;5073597;28;20440;-5
2022/06/12 01:23:47;;;;;;;2.33;1.80;;;24.00;86.00;;;;;;5055415;28;20180;-6
2022/06/12 01:26:38;;;;;;;3.37;2.13;;;24.00;86.00;;;;;;5056283;28;20174;-7
2022/06/12 01:29:27;;;;;;;2.47;1.60;;;24.00;86.00;;;;;;5055549;28;20182;-7
2022/06/12 01:32:13;;;;;;;2.57;1.90;;;24.00;86.00;;;;;;5048113;28;20242;-6
2022/06/12 01:35:05;;;;;;;2.30;1.90;;;24.00;86.00;;;;;;5055823;28;20210;-6
2022/06/12 01:37:37;;;;;;;2.37;1.70;;;24.00;86.10;;;;;;5072905;28;20865;-7
2022/06/12 01:40:38;;;;;;;2.27;1.70;;;23.90;86.00;;;;;;5072477;28;20168;-6
2022/06/12 01:43:16;;;;;;;2.73;1.80;;;23.90;85.90;;;;;;5073867;28;20560;-7
2022/06/12 01:45:45;;;;;;;2.03;1.60;;;23.90;85.90;;;;;;5072978;28;20198;-6
2022/06/12 01:48:39;;;;;;;3.50;1.93;;;23.90;85.90;;;;;;5055319;28;20614;-6
2022/06/12 01:51:12;;;;;;;2.13;1.83;;;23.90;85.80;;;;;;5056021;28;20445;-7
2022/06/12 01:53:43;;;;;;;3.47;2.27;;;23.90;85.80;;;;;;5073387;28;20219;-7
2022/06/12 01:56:20;;;;;;;3.00;1.80;;;23.90;85.90;;;;;;5073332;28;20167;-6
2022/06/12 01:59:08;;;;;;;2.10;1.60;;;23.90;85.90;;;;;;5053721;28;20203;-8
2022/06/12 02:01:46;;;;;;;3.53;2.10;;;23.80;85.90;;;;;;5055512;28;20187;-6
2022/06/12 02:05:01;;;;;;;3.10;1.80;;;23.90;86.00;;;;;;5053767;28;20194;-6
2022/06/12 02:07:33;;;;;;;2.27;1.80;;;23.80;85.90;;;;;;5036522;28;20197;-7
2022/06/12 02:10:20;;;;;;;2.10;1.70;;;23.80;86.00;;;;;;5072445;28;20498;-6
2022/06/12 02:13:12;;;;;;;2.13;1.77;;;23.80;85.90;;;;;;5053954;28;20191;-6
2022/06/12 02:15:43;;;;;;;2.50;1.73;;;23.80;86.00;;;;;;5043401;28;20185;-7
2022/06/12 02:18:15;;;;;;;3.90;1.80;;;23.70;85.90;;;;;;5073540;28;20223;-6
2022/06/12 02:20:46;;;;;;;2.20;1.80;;;23.70;85.90;;;;;;5058659;28;20171;-7
2022/06/12 02:23:19;;;;;;;3.03;1.93;;;23.70;86.50;;;;;;5076136;28;20171;-7
2022/06/12 02:25:48;;;;;;;2.60;1.73;;;23.70;85.90;;;;;;5076192;28;20172;-5
2022/06/12 02:28:18;;;;;;;3.70;2.40;;;23.70;85.90;;;;;;5076503;28;20278;-7
2022/06/12 02:30:48;;;;;;;2.90;1.77;;;23.70;85.90;;;;;;5059952;28;20192;-7
2022/06/12 02:33:17;;;;;;;2.37;1.80;;;23.60;85.90;;;;;;5076351;28;20383;-7
2022/06/12 02:35:47;;;;;;;2.70;1.87;;;23.70;86.00;;;;;;5075488;28;20176;-7
2022/06/12 02:38:27;;;;;;;2.00;1.70;;;23.60;85.90;;;;;;5076464;28;20204;-7
2022/06/12 02:41:14;;;;;;;3.33;1.80;;;23.60;86.00;;;;;;5076019;28;20218;-6
2022/06/12 02:43:44;;;;;;;3.67;2.00;;;23.60;86.00;;;;;;5075888;28;20190;-6
2022/06/12 02:46:18;;;;;;;2.43;1.70;;;23.60;86.00;;;;;;5058321;28;20172;-6
2022/06/12 02:48:44;;;;;;;2.80;1.60;;;23.60;86.00;;;;;;5076508;28;20171;-6
2022/06/12 02:51:16;;;;;;;2.83;1.90;;;23.60;86.00;;;;;;5075891;28;20190;-6
2022/06/12 02:53:58;;;;;;;2.63;1.90;;;23.50;85.90;;;;;;5075493;28;20172;-7
2022/06/12 02:56:33;;;;;;;2.90;1.83;;;23.50;85.90;;;;;;5075660;28;20176;-7
2022/06/12 02:59:10;;;;;;;3.00;1.80;;;23.50;86.00;;;;;;5058264;28;20580;-6
2022/06/12 03:01:46;;;;;;;3.17;2.00;;;23.50;86.00;;;;;;5058132;28;20193;-5
2022/06/12 03:04:21;;;;;;;3.20;1.70;;;23.50;86.00;;;;;;5076646;28;20179;-7
2022/06/12 03:06:46;;;;;;;3.03;1.70;;;23.40;85.90;;;;;;5058037;28;20171;-7
2022/06/12 03:09:12;;;;;;;4.93;2.00;;;23.40;85.90;;;;;;5074208;28;20175;-6
2022/06/12 03:11:41;;;;;;;3.37;1.90;;;23.40;85.90;;;;;;5075808;28;20434;-6
2022/06/12 03:14:10;;;;;;;3.23;2.00;;;23.40;85.90;;;;;;5057887;28;20279;-6
2022/06/12 03:16:41;;;;;;;1.90;1.70;;;23.40;85.90;;;;;;5075187;28;20269;-7
2022/06/12 03:19:26;;;;;;;3.93;1.90;;;23.40;86.00;;;;;;5075665;28;20462;-6
2022/06/12 03:22:06;;;;;;;2.30;1.70;;;23.40;85.90;;;;;;5074950;28;20167;-6
2022/06/12 03:24:52;;;;;;;3.97;1.83;;;23.40;85.90;;;;;;5073733;28;20662;-6
2022/06/12 03:27:26;;;;;;;3.37;1.87;;;23.30;85.80;;;;;;5057486;28;20178;-6
2022/06/12 03:30:05;;;;;;;2.07;1.70;;;23.30;85.80;;;;;;5058391;28;20180;-7
2022/06/12 03:32:51;;;;;;;5.57;2.17;;;23.30;85.70;;;;;;5076357;28;20171;-7
2022/06/12 03:35:45;;;;;;;3.13;1.80;;;23.30;85.70;;;;;;5076007;28;20178;-5
2022/06/12 03:38:19;;;;;;;3.20;1.83;;;23.30;85.70;;;;;;5076223;28;20286;-5
2022/06/12 03:41:35;;;;;;;4.57;2.10;;;23.30;85.70;;;;;;5076697;28;20217;-5
2022/06/12 03:44:14;;;;;;;3.20;1.90;;;23.30;85.70;;;;;;5054130;28;20176;-7
2022/06/12 03:47:04;;;;;;;2.63;1.80;;;23.20;85.50;;;;;;5075173;28;20171;-5
2022/06/12 03:49:52;;;;;;;3.47;1.97;;;23.20;85.50;;;;;;5076160;28;20730;-6
2022/06/12 03:52:45;;;;;;;2.17;1.80;;;23.20;85.40;;;;;;5076025;28;20533;-6
2022/06/12 03:58:26;;;;;;;3.70;1.70;;;23.20;85.30;;;;;;5074514;28;20272;-6
2022/06/12 04:00:53;;;;;;;2.30;1.83;;;23.20;85.30;;;;;;5058222;28;20172;-5
2022/06/12 04:03:42;;;;;;;2.57;1.90;;;23.20;85.20;;;;;;5075373;28;20220;-6
2022/06/12 04:06:14;;;;;;;2.57;1.90;;;23.20;85.10;;;;;;5074850;28;20171;-6
2022/06/12 04:08:53;;;;;;;2.77;1.90;;;23.20;85.00;;;;;;5075028;28;20193;-6
2022/06/12 04:11:22;;;;;;;2.93;1.73;;;23.20;85.00;;;;;;5057638;28;20187;-6
2022/06/12 04:13:49;;;;;;;2.97;1.90;;;23.20;84.90;;;;;;5074601;28;20168;-5
2022/06/12 04:16:24;;;;;;;2.23;1.70;;;23.20;84.80;;;;;;5074695;28;20568;-6
2022/06/12 04:18:50;;;;;;;2.90;1.97;;;23.20;84.70;;;;;;5056635;28;20208;-6
2022/06/12 04:21:38;;;;;;;2.90;1.73;;;23.20;84.60;;;;;;5074375;28;20458;-5
2022/06/12 04:24:09;;;;;;;2.40;1.70;;;23.20;84.60;;;;;;5056570;28;20457;-6
2022/06/12 04:26:54;;;;;;;3.57;1.80;;;23.20;84.50;;;;;;5056555;28;20168;-7
2022/06/12 04:29:30;;;;;;;2.00;1.70;;;23.20;84.40;;;;;;5056878;28;20465;-6
2022/06/12 04:32:01;;;;;;;2.80;2.10;;;23.20;84.30;;;;;;5057242;28;20183;-6
2022/06/12 04:34:40;;;;;;;2.70;1.83;;;23.20;84.20;;;;;;5056970;28;20569;-6
2022/06/12 04:37:18;;;;;;;2.47;1.87;;;23.20;84.20;;;;;;5073653;28;20190;-7
2022/06/12 04:39:45;;;;;;;3.13;1.80;;;23.20;84.00;;;;;;5056124;28;20211;-6
2022/06/12 04:42:17;;;;;;;2.67;1.97;;;23.20;83.90;;;;;;5055964;28;20172;-6
2022/06/12 04:44:43;;;;;;;2.77;1.70;;;23.20;83.90;;;;;;5074263;28;20571;-7
2022/06/12 04:47:17;;;;;;;2.30;1.90;;;23.20;83.80;;;;;;5073760;28;20167;-7
2022/06/12 04:49:43;;;;;;;4.60;2.20;;;23.20;83.60;;;;;;5073770;28;20592;-7
2022/06/12 04:52:11;;;;;;;2.57;1.90;;;23.20;83.40;;;;;;5074015;28;20171;-7
2022/06/12 04:54:39;;;;;;;4.03;1.90;;;23.30;83.40;;;;;;5074550;28;20182;-5
2022/06/12 04:57:06;;;;;;;3.00;1.90;;;23.30;83.30;;;;;;5056683;28;20179;-5
2022/06/12 04:59:32;;;;;;;3.00;1.90;;;23.30;83.10;;;;;;5056577;28;20522;-5
2022/06/12 05:01:58;;;;;;;3.23;1.73;;;23.30;83.00;;;;;;5056532;28;20179;-6
2022/06/12 05:04:26;;;;;;;4.90;2.00;;;23.30;82.80;;;;;;5074838;28;20178;-6
2022/06/12 05:06:52;;;;;;;2.03;1.63;;;23.40;82.80;;;;;;5055514;28;20167;-7
2022/06/12 05:09:20;;;;;;;2.40;1.77;;;23.40;82.60;;;;;;5073760;28;20499;-7
2022/06/12 05:11:47;;;;;;;3.47;1.80;;;23.40;82.50;;;;;;5055052;28;20191;-5
2022/06/12 05:14:13;;;;;;;2.10;1.70;;;23.40;82.30;;;;;;5055654;28;20180;-7
2022/06/12 05:16:52;;;;;;;2.90;1.57;;;23.40;82.20;;;;;;5056716;28;20561;-6
2022/06/12 05:19:23;;;;;;;3.47;1.87;;;23.50;82.00;;;;;;5074176;28;20298;-6
2022/06/12 05:21:50;;;;;;;2.70;1.80;;;23.50;81.80;;;;;;5072642;28;20614;-9
2022/06/12 05:24:16;;;;;;;3.57;1.80;;;23.50;81.50;;;;;;5073321;28;20269;-5
2022/06/12 05:26:45;;;;;;;3.37;1.70;;;23.60;81.30;;;;;;5072333;28;20255;-6
2022/06/12 05:29:25;;;;;;;3.03;1.90;;;23.60;81.00;;;;;;5071887;28;20236;-7
2022/06/12 05:31:52;;;;;;;4.27;1.90;;;23.60;80.60;;;;;;5072283;28;20400;-7
2022/06/12 05:34:18;;;;;;;2.57;1.60;;;23.70;80.30;;;;;;5074196;28;20504;-6
2022/06/12 05:36:45;;;;;;;3.10;1.73;;;23.70;80.00;;;;;;5056133;28;20257;-6
2022/06/12 05:39:12;;;;;;;2.07;1.63;;;23.80;79.60;;;;;;5073114;28;20268;-5
2022/06/12 05:41:38;;;;;;;4.10;1.83;;;23.80;79.10;;;;;;5056241;28;20212;-5
2022/06/12 05:44:05;;;;;;;2.20;1.60;;;23.90;78.80;;;;;;5073471;28;20534;-5
2022/06/12 05:46:30;;;;;;;2.27;1.60;;;23.90;78.40;;;;;;5055506;28;20235;-6
2022/06/12 05:48:56;;;;;;;2.30;1.70;;;24.00;77.70;;;;;;5073815;28;20572;-6
2022/06/12 05:51:21;;;;;;;3.93;1.80;;;24.00;77.20;;;;;;5055516;28;20242;-6
2022/06/12 05:53:47;;;;;;;2.77;1.70;;;24.10;76.50;;;;;;5058379;28;20175;-7
2022/06/12 05:56:18;;;;;;;2.57;1.50;;;24.20;75.90;;;;;;5077008;28;20176;-6
2022/06/12 05:58:44;;;;;;;3.03;1.90;;;24.30;75.10;;;;;;5059792;28;20233;-6
2022/06/12 06:01:13;;;;;;;3.50;1.80;;;24.50;74.10;;;;;;5059752;28;20175;-5
2022/06/12 06:03:39;;;;;;;2.70;1.57;;;24.60;72.70;;;;;;5058473;28;20199;-6
2022/06/12 06:06:07;;;;;;;2.97;1.73;;;24.90;69.60;;;;;;5057606;28;20221;-7
2022/06/12 06:08:33;;;;;;;2.23;1.50;;;25.20;67.10;;;;;;5057604;28;20623;-7
2022/06/12 06:10:59;;;;;;;3.03;1.60;;;25.50;65.00;;;;;;5075471;28;20176;-6
2022/06/12 06:13:24;;;;;;;2.90;1.70;;;25.70;63.50;;;;;;5075600;28;20187;-5
2022/06/12 06:15:51;;;;;;;2.57;1.53;;;25.80;62.30;;;;;;5057932;28;20213;-7
2022/06/12 06:18:18;;;;;;;3.50;1.80;;;25.90;61.30;;;;;;5076300;28;20211;-7
2022/06/12 06:20:45;;;;;;;2.90;1.70;;;26.10;60.50;;;;;;5057887;28;20488;-5
2022/06/12 06:23:11;;;;;;;2.23;1.63;;;26.20;59.80;;;;;;5073977;28;20245;-6
2022/06/12 06:25:38;;;;;;;2.73;1.60;;;26.40;59.40;;;;;;5057946;28;20175;-6
2022/06/12 06:28:05;;;;;;;3.10;1.67;;;26.40;59.00;;;;;;5075566;28;20402;-7
2022/06/12 06:30:31;;;;;;;2.10;1.57;;;26.60;58.70;;;;;;5056735;28;20195;-5
2022/06/12 06:32:57;;;;;;;1.83;1.57;;;26.60;58.30;;;;;;5075987;28;20199;-5
2022/06/12 06:35:23;;;;;;;3.00;1.70;;;26.80;58.00;;;;;;5075117;28;20451;-6
2022/06/12 06:37:51;;;;;;;1.87;1.53;;;26.90;57.70;;;;;;5057188;28;20195;-5
2022/06/12 06:40:18;;;;;;;1.97;1.40;;;27.00;57.40;;;;;;5056602;28;20179;-5
2022/06/12 06:42:44;;;;;;;2.37;1.57;;;27.10;57.10;;;;;;5075870;28;20172;-7
2022/06/12 06:47:57;;;;;;;3.90;1.70;;;27.30;56.60;;;;;;5084564;28;20323;-5
2022/06/12 06:50:24;;;;;;;2.38;1.52;;;27.40;56.30;;;;;;5088261;28;20168;-7
2022/06/12 06:52:51;;;;;;;2.17;1.42;;;27.40;56.10;;;;;;5097972;28;20658;-6
2022/06/12 06:55:17;;;;;;;3.10;1.73;;;27.60;55.90;;;;;;5079596;28;20211;-6
2022/06/12 06:57:45;;;;;;;2.85;1.80;;;27.70;55.60;;;;;;5079113;28;20178;-6
2022/06/12 07:00:26;;;;;;;3.47;1.65;;;27.70;55.50;;;;;;5098417;28;20230;-5
2022/06/12 07:02:52;;;;;;;2.47;1.75;;;27.70;55.40;;;;;;5081147;28;20579;-5
2022/06/12 07:05:20;;;;;;;4.05;2.00;;;27.80;55.30;;;;;;5097624;28;20162;-6
2022/06/12 07:07:48;;;;;;;5.10;1.92;;;27.80;55.20;;;;;;5097661;28;20178;-6
2022/06/12 07:10:17;;;;;;;2.72;1.50;;;27.90;55.10;;;;;;5097651;28;20241;-7
2022/06/12 07:12:43;;;;;;;2.58;1.80;;;27.90;54.90;;;;;;5098001;28;20167;-6
2022/06/12 07:15:11;;;;;;;3.50;1.83;;;28.00;54.80;;;;;;5080807;28;20571;-7
2022/06/12 07:17:37;;;;;;;2.63;1.55;;;28.10;54.70;;;;;;5098006;28;20273;-7
2022/06/12 07:20:03;;;;;;;2.83;1.80;;;28.10;54.60;;;;;;5083560;28;20318;-7
2022/06/12 07:22:28;;;;;;;2.42;1.50;;;28.10;54.40;;;;;;5096887;28;20292;-6
2022/06/12 07:24:54;;;;;;;3.95;1.60;;;28.20;54.40;;;;;;5080834;28;20170;-6
2022/06/12 07:27:20;;;;;;;4.20;1.70;;;28.20;54.30;;;;;;5098303;28;20702;-7
2022/06/12 07:29:46;;;;;;;3.15;1.60;;;28.20;54.20;;;;;;5097281;28;20273;-7
2022/06/12 07:32:12;;;;;;;3.88;1.70;;;28.20;54.20;;;;;;5098139;28;20621;-7
2022/06/12 07:34:38;;;;;;;2.70;1.73;;;28.20;54.10;;;;;;5093043;28;20171;-6
2022/06/12 07:37:07;;;;;;;3.03;1.83;;;28.30;54.20;;;;;;5095985;28;20213;-6
2022/06/12 07:39:34;;;;;;;4.65;1.80;;;28.30;54.10;;;;;;5079843;28;20217;-7
2022/06/12 07:42:00;;;;;;;3.75;1.77;;;28.30;54.10;;;;;;5080093;28;20507;-7
2022/06/12 07:44:30;;;;;;;3.42;1.98;;;28.30;54.10;;;;;;5097347;28;20170;-5
2022/06/12 07:46:57;;;;;;;2.95;1.70;;;28.30;54.00;;;;;;5092985;28;20229;-6
2022/06/12 07:49:25;;;;;;;6.20;2.10;;;28.40;53.90;;;;;;5077155;28;20206;-9
2022/06/12 07:51:52;;;;;;;7.95;2.30;;;28.20;53.50;;;;;;5079118;28;20274;-7
2022/06/12 07:54:18;;;;;;;6.18;2.45;;;28.20;53.40;;;;;;5096874;28;20171;-6
2022/06/12 07:56:45;;;;;;;6.78;2.53;;;28.20;53.00;;;;;;5083566;28;20191;-7
2022/06/12 07:59:10;;;;;;;8.65;2.25;;;28.20;53.00;;;;;;5058617;28;20207;-5
2022/06/12 08:01:38;;;;;;;4.20;2.10;;;28.10;52.90;;;;;;5076509;28;20252;-6
2022/06/12 08:04:05;;;;;;;10.13;2.33;;;28.10;53.00;;;;;;5075081;28;20183;-6
2022/06/12 08:06:31;;;;;;;16.98;3.17;;;28.20;53.30;;;;;;5075519;28;20222;-9
2022/06/12 08:08:57;;;;;;;20.75;2.65;;;28.20;53.70;;;;;;5075402;28;20167;-6
2022/06/12 08:11:26;;;;;;;13.27;2.95;;;28.20;53.90;;;;;;5076135;28;20219;-8
2022/06/12 08:13:53;;;;;;;11.93;3.00;;;28.20;53.90;;;;;;5074985;28;20207;-7
2022/06/12 08:16:20;;;;;;;11.18;2.53;;;28.20;53.90;;;;;;5073902;28;20164;-7
2022/06/12 08:18:46;;;;;;;15.88;2.92;;;28.30;53.90;;;;;;5072987;28;20246;-7
2022/06/12 08:21:14;;;;;;;16.02;2.97;;;28.30;53.90;;;;;;5074191;28;20448;-6
2022/06/12 08:23:52;;;;;;;17.95;2.72;;;28.40;53.90;;;;;;5075959;28;20622;-7
2022/06/12 08:26:18;;;;;;;10.55;2.55;;;28.40;53.90;;;;;;5085865;28;20257;-7
2022/06/12 08:28:58;;;;;;;7.13;2.30;;;28.40;53.90;;;;;;5096687;28;20262;-7
2022/06/12 08:31:35;;;;;;;7.15;2.47;;;28.50;54.00;;;;;;5095928;28;20175;-6
2022/06/12 08:34:06;;;;;;;9.55;2.75;;;28.50;54.00;;;;;;5091364;28;20595;-7
2022/06/12 08:36:32;;;;;;;6.90;2.15;;;28.50;54.00;;;;;;5090285;28;20189;-7
2022/06/12 08:38:57;;;;;;;7.20;2.28;;;28.60;54.10;;;;;;5073075;28;20198;-7
2022/06/12 08:41:40;;;;;;;9.15;2.60;;;28.60;54.00;;;;;;5091104;28;20221;-7
2022/06/12 08:44:34;;;;;;;7.15;2.72;;;28.60;54.00;;;;;;5091142;28;20391;-7
2022/06/12 08:47:09;;;;;;;8.25;2.20;;;28.60;54.00;;;;;;5091569;28;20221;-7
2022/06/12 08:50:12;;;;;;;8.95;2.42;;;28.70;54.10;;;;;;5072968;28;20587;-6
2022/06/12 08:52:55;;;;;;;7.85;2.47;;;28.70;54.10;;;;;;5076292;28;20227;-7
2022/06/12 08:55:25;;;;;;;6.28;2.38;;;28.70;54.10;;;;;;5083032;28;20185;-6
2022/06/12 08:58:43;;;;;;;7.40;2.75;;;28.70;54.10;;;;;;5095723;28;20163;-7
2022/06/12 09:01:10;;;;;;;6.88;2.25;;;28.70;54.10;;;;;;5065200;28;20193;-6
2022/06/12 09:03:39;;;;;;;5.95;2.22;;;28.80;54.10;;;;;;5095764;28;20205;-7
2022/06/12 09:06:28;;;;;;;8.32;2.40;;;28.80;54.10;;;;;;5095490;28;20163;-9
2022/06/12 09:09:04;;;;;;;6.88;2.22;;;28.90;54.10;;;;;;5095636;28;20263;-7
2022/06/12 09:11:37;;;;;;;4.47;2.13;;;28.90;54.20;;;;;;5078074;28;20181;-7
2022/06/12 09:14:07;;;;;;;5.60;2.35;;;28.90;54.20;;;;;;5087280;28;20186;-5
2022/06/12 09:16:59;;;;;;;5.55;1.90;;;29.00;54.20;;;;;;5079292;28;20188;-7
2022/06/12 09:19:50;;;;;;;4.00;2.20;;;29.00;54.20;;;;;;5074144;28;20663;-6
2022/06/12 09:22:25;;;;;;;3.55;1.90;;;29.00;54.20;;;;;;5075203;28;20160;-7
2022/06/12 09:24:57;;;;;;;4.45;1.88;;;29.10;54.20;;;;;;5074526;28;20228;-6
2022/06/12 09:27:41;;;;;;;5.47;2.05;;;29.10;54.20;;;;;;5076717;28;20176;-7
2022/06/12 09:30:17;;;;;;;6.55;2.17;;;29.10;54.20;;;;;;5079454;28;20152;-7
2022/06/12 09:32:55;;;;;;;5.18;2.20;;;29.20;54.30;;;;;;5078928;28;20178;-7
2022/06/12 09:35:41;;;;;;;3.53;1.98;;;29.20;54.40;;;;;;5079137;28;20155;-7
2022/06/12 09:38:33;;;;;;;5.53;2.00;;;29.20;54.40;;;;;;5060552;28;20187;-7
2022/06/12 09:41:17;;;;;;;4.32;2.08;;;29.10;54.80;;;;;;5077080;28;20258;-6
2022/06/12 09:44:21;;;;;;;4.97;2.00;;;29.10;54.50;;;;;;5078937;28;20262;-6
2022/06/12 09:47:38;;;;;;;5.70;2.10;;;29.10;54.60;;;;;;5056683;28;20219;-7
2022/06/12 09:50:09;;;;;;;5.93;2.17;;;29.10;54.70;;;;;;5053364;28;20188;-7
2022/06/12 09:52:50;;;;;;;7.32;2.08;;;29.10;54.80;;;;;;5092052;28;20183;-7
2022/06/12 09:55:35;;;;;;;5.28;1.90;;;29.10;54.70;;;;;;5098830;28;20175;-6
2022/06/12 09:58:17;;;;;;;5.60;2.10;;;29.10;54.70;;;;;;5080714;28;20186;-7
2022/06/12 10:00:58;;;;;;;3.78;2.00;;;29.10;54.90;;;;;;5098412;28;20155;-6
2022/06/12 10:03:43;;;;;;;6.60;1.80;;;29.10;54.80;;;;;;5081488;28;20258;-7
2022/06/12 10:06:25;;;;;;;2.50;1.55;;;29.10;54.80;;;;;;5060804;28;20457;-7
2022/06/12 10:09:02;;;;;;;3.30;1.77;;;29.20;54.90;;;;;;5078899;28;20171;-7
2022/06/12 10:11:34;;;;;;;2.92;1.70;;;29.20;54.90;;;;;;5061404;28;20167;-5
2022/06/12 10:14:07;;;;;;;2.40;1.65;;;29.10;55.00;;;;;;5079626;28;20195;-6
2022/06/12 10:16:53;;;;;;;3.50;1.60;;;29.10;55.00;;;;;;5078575;28;20180;-7
2022/06/12 10:19:45;;;;;;;5.00;1.85;;;29.10;55.10;;;;;;5078057;28;20653;-7
2022/06/12 10:22:25;;;;;;;3.17;1.65;;;29.10;55.20;;;;;;5060950;28;20172;-6
2022/06/12 10:24:51;;;;;;;2.83;1.60;;;29.00;55.20;;;;;;5060518;28;20175;-7
2022/06/12 10:27:19;;;;;;;2.83;1.65;;;29.10;55.30;;;;;;5093777;28;20179;-5
2022/06/12 10:30:03;;;;;;;2.40;1.42;;;29.00;55.40;;;;;;5062658;28;20226;-6
2022/06/12 10:32:52;;;;;;;2.67;1.65;;;29.00;55.50;;;;;;5098086;28;20505;-7
2022/06/12 10:35:21;;;;;;;4.97;1.70;;;29.00;55.60;;;;;;5098007;28;20195;-6
2022/06/12 10:37:50;;;;;;;2.25;1.30;;;29.00;55.60;;;;;;5078043;28;20198;-6
2022/06/12 10:40:24;;;;;;;4.93;1.80;;;29.00;55.70;;;;;;5076922;28;20606;-5
2022/06/12 10:42:55;;;;;;;1.60;1.30;;;29.00;55.70;;;;;;5077511;28;20164;-6
2022/06/12 10:45:31;;;;;;;2.47;1.50;;;29.00;55.80;;;;;;5077896;28;20530;-7
2022/06/12 10:48:00;;;;;;;2.72;1.40;;;29.00;55.80;;;;;;5077589;28;20206;-5
2022/06/12 10:50:28;;;;;;;1.60;1.20;;;29.00;55.90;;;;;;5079659;28;20456;-6
2022/06/12 10:53:00;;;;;;;1.85;1.40;;;29.00;56.00;;;;;;5060043;28;20233;-7
2022/06/12 10:55:48;;;;;;;2.78;1.27;;;28.90;56.00;;;;;;5077179;28;20160;-6
2022/06/12 10:58:39;;;;;;;4.53;1.40;;;28.90;56.20;;;;;;5068315;28;20213;-5
2022/06/12 11:01:24;;;;;;;2.22;1.10;;;28.90;56.20;;;;;;5089776;28;20241;-7
2022/06/12 11:03:55;;;;;;;1.83;1.42;;;28.90;56.30;;;;;;5095042;28;20181;-5
2022/06/12 11:06:34;;;;;;;2.20;1.40;;;28.90;56.40;;;;;;5092092;28;20269;-6
2022/06/12 11:09:22;;;;;;;2.25;1.38;;;28.90;56.40;;;;;;5092637;28;20178;-6
2022/06/12 11:12:01;;;;;;;2.72;1.33;;;28.90;56.50;;;;;;5072420;28;20328;-6
2022/06/12 11:14:41;;;;;;;2.85;1.30;;;28.90;56.60;;;;;;5097307;28;20397;-5
2022/06/12 11:17:16;;;;;;;2.38;1.17;;;28.90;56.70;;;;;;5097566;28;20248;-8
2022/06/12 11:19:58;;;;;;;1.98;1.20;;;28.80;56.70;;;;;;5068850;28;20202;-7
2022/06/12 11:22:23;;;;;;;2.30;1.23;;;28.80;56.70;;;;;;5076317;28;20163;-7
2022/06/12 11:25:26;;;;;;;3.38;1.45;;;28.80;56.90;;;;;;5073191;28;20186;-6
2022/06/12 11:28:16;;;;;;;2.22;1.20;;;28.80;56.90;;;;;;5059107;28;20176;-6
2022/06/12 11:30:57;;;;;;;2.07;1.23;;;28.80;57.00;;;;;;5076671;28;20167;-6
2022/06/12 11:33:46;;;;;;;2.63;1.20;;;28.70;57.00;;;;;;5075356;28;20179;-6
2022/06/12 11:36:38;;;;;;;3.93;1.50;;;28.80;57.10;;;;;;5073346;28;20176;-6
2022/06/12 11:39:45;;;;;;;3.03;1.07;;;28.70;57.20;;;;;;5067938;28;20275;-7
2022/06/12 11:42:28;;;;;;;2.38;1.20;;;28.80;57.30;;;;;;5063075;28;20201;-5
2022/06/12 11:45:00;;;;;;;1.93;1.13;;;28.80;57.40;;;;;;5077014;28;20178;-6
2022/06/12 11:47:51;;;;;;;2.07;1.27;;;28.80;57.40;;;;;;5090276;28;20171;-6
2022/06/12 11:50:37;;;;;;;2.00;1.20;;;28.70;57.40;;;;;;5073395;28;20186;-7
2022/06/12 11:53:37;;;;;;;2.72;1.58;;;28.70;57.50;;;;;;5071487;28;20171;-6
2022/06/12 11:56:30;;;;;;;1.90;1.20;;;28.70;57.60;;;;;;5072492;28;20179;-6
2022/06/12 11:59:11;;;;;;;1.20;0.90;;;28.70;57.60;;;;;;5089268;28;20580;-7
2022/06/12 12:01:54;;;;;;;2.00;1.30;;;28.70;57.70;;;;;;5090079;28;20574;-6
2022/06/12 12:04:29;;;;;;;1.73;1.10;;;28.70;57.80;;;;;;5089760;28;20493;-7
2022/06/12 12:07:27;;;;;;;1.77;0.97;;;28.70;57.90;;;;;;5071679;28;20182;-6
2022/06/12 12:10:14;;;;;;;1.50;1.10;;;28.70;58.00;;;;;;5073931;28;20781;-7
2022/06/12 12:12:51;;;;;;;1.97;1.20;;;28.70;58.10;;;;;;5073949;28;20500;-7
2022/06/12 12:15:25;;;;;;;2.47;1.40;;;28.60;58.10;;;;;;5095740;28;20171;-5
2022/06/12 12:17:53;;;;;;;1.47;1.00;;;28.60;58.20;;;;;;5096068;28;20182;-5
2022/06/12 12:20:38;;;;;;;2.00;1.20;;;28.60;58.20;;;;;;5087092;28;20203;-5
2022/06/12 12:23:25;;;;;;;2.10;1.20;;;28.60;58.30;;;;;;5081686;28;20190;-7
2022/06/12 12:25:58;;;;;;;1.97;1.13;;;28.60;58.30;;;;;;5075399;28;20171;-7
2022/06/12 12:28:30;;;;;;;1.67;1.00;;;28.60;58.30;;;;;;5079887;28;20171;-7
2022/06/12 12:31:02;;;;;;;1.80;1.10;;;28.60;58.30;;;;;;5083837;28;20251;-7
2022/06/12 12:33:29;;;;;;;1.67;1.00;;;28.60;58.40;;;;;;5076336;28;20179;-7
2022/06/12 12:41:48;;;;;;;1.60;1.03;;;28.60;58.50;;;;;;5074419;28;20241;-7
2022/06/12 12:44:35;;;;;;;2.00;1.00;;;28.60;58.60;;;;;;5073657;28;20172;-6
2022/06/12 12:47:01;;;;;;;2.63;1.17;;;28.60;58.60;;;;;;5074257;28;20180;-7
2022/06/12 12:49:30;;;;;;;1.97;1.23;;;28.60;58.60;;;;;;5056469;28;20240;-7
2022/06/12 12:52:10;;;;;;;1.63;1.20;;;28.60;58.70;;;;;;5075093;28;20253;-7
2022/06/12 12:54:47;;;;;;;2.13;1.07;;;28.60;58.80;;;;;;5095015;28;20469;-6
2022/06/12 12:57:15;;;;;;;1.87;1.07;;;28.60;58.80;;;;;;5078304;28;20231;-8
2022/06/12 12:59:48;;;;;;;2.20;1.23;;;28.50;58.70;;;;;;5092548;28;20219;-6
2022/06/12 13:02:23;;;;;;;1.53;1.10;;;28.50;58.80;;;;;;5087156;28;20175;-6
2022/06/12 13:04:50;;;;;;;1.97;1.10;;;28.60;58.90;;;;;;5069282;28;20469;-7
2022/06/12 13:07:25;;;;;;;1.53;1.00;;;28.60;58.90;;;;;;5086970;28;20167;-6
2022/06/12 13:10:20;;;;;;;1.97;1.17;;;28.60;59.00;;;;;;5087248;28;20393;-6
2022/06/12 13:12:57;;;;;;;1.93;1.10;;;28.50;58.90;;;;;;5088079;28;20201;-7
2022/06/12 13:15:36;;;;;;;1.57;0.80;;;28.50;59.00;;;;;;5069837;28;20251;-6
2022/06/12 13:18:12;;;;;;;1.73;1.10;;;28.50;59.00;;;;;;5086935;28;20542;-7
2022/06/12 13:20:40;;;;;;;2.57;1.03;;;28.50;59.00;;;;;;5086996;28;20190;-6
2022/06/12 13:23:49;;;;;;;4.17;1.30;;;28.50;59.10;;;;;;5070448;28;20171;-5
2022/06/12 13:26:17;;;;;;;2.17;0.90;;;28.50;59.10;;;;;;5071685;28;20210;-6
2022/06/12 13:28:57;;;;;;;2.37;1.20;;;28.50;59.10;;;;;;5089197;28;20183;-6
2022/06/12 13:31:23;;;;;;;1.90;0.83;;;28.50;59.20;;;;;;5087512;28;20539;-7
2022/06/12 13:33:57;;;;;;;2.37;1.17;;;28.50;59.20;;;;;;5087162;28;20167;-6
2022/06/12 13:36:37;;;;;;;3.33;1.10;;;28.40;59.20;;;;;;5089596;28;20182;-7
2022/06/12 13:39:21;;;;;;;2.23;1.20;;;28.40;59.20;;;;;;5088678;28;20241;-5
2022/06/12 13:41:55;;;;;;;1.93;1.00;;;28.40;59.20;;;;;;5070911;28;20533;-7
2022/06/12 13:44:29;;;;;;;2.20;1.00;;;28.50;59.30;;;;;;5088258;28;20159;-6
2022/06/12 13:46:57;;;;;;;2.80;1.23;;;28.40;59.30;;;;;;5088442;28;20167;-5
2022/06/12 13:49:49;;;;;;;2.13;1.30;;;28.40;59.30;;;;;;5087793;28;20198;-5
2022/06/12 13:52:40;;;;;;;1.60;1.20;;;28.40;59.30;;;;;;5061897;28;20183;-5